createdAt,value
2023-01-05T00:01:58.379Z,95560.50
2023-01-05T00:04:25.047Z,95552.63
2023-01-05T00:06:52.324Z,95557.25
2023-01-05T00:09:19.227Z,95522.59
2023-01-05T00:12:05.991Z,95530.47
2023-01-05T00:14:51.871Z,95536.09
2023-01-05T00:17:37.950Z,95514.25
2023-01-05T00:20:24.832Z,95524.34
2023-01-05T00:22:52.551Z,95513.81
2023-01-05T00:25:20.975Z,95518.44
2023-01-05T00:27:50.616Z,95515.34
2023-01-05T00:30:18.848Z,95515.81
2023-01-05T00:32:45.722Z,95491.75
2023-01-05T00:35:13.671Z,95496.03
2023-01-05T00:37:40.222Z,95488.13
2023-01-05T00:40:07.611Z,95487.13
2023-01-05T00:42:34.106Z,95479.84
2023-01-05T00:45:00.568Z,95476.19
2023-01-05T00:47:27.224Z,95477.22
2023-01-05T00:49:53.658Z,95487.94
2023-01-05T00:52:20.104Z,95479.84
2023-01-05T00:54:46.535Z,95478.19
2023-01-05T00:57:13.475Z,95467.69
2023-01-05T00:59:39.958Z,95459.19
2023-01-05T01:02:06.788Z,95454.03
2023-01-05T01:04:34.122Z,95457.47
2023-01-05T01:07:00.687Z,95469.44
2023-01-05T01:09:27.390Z,95465.56
2023-01-05T01:11:53.859Z,95466.81
2023-01-05T01:14:20.648Z,95458.75
2023-01-05T01:16:47.189Z,95455.13
2023-01-05T01:19:14.973Z,95465.63
2023-01-05T01:21:41.703Z,95450.88
2023-01-05T01:24:08.327Z,95461.91
2023-01-05T01:26:34.853Z,95465.97
2023-01-05T01:29:01.304Z,95464.13
2023-01-05T01:31:27.745Z,95444.72
2023-01-05T01:33:54.235Z,95441.06
2023-01-05T01:36:20.702Z,95423.47
2023-01-05T01:38:47.134Z,95437.25
2023-01-05T01:41:14.136Z,95428.19
2023-01-05T01:43:51.288Z,95413.03
2023-01-05T01:46:18.870Z,95420.91
2023-01-05T01:48:47.935Z,95398.13
2023-01-05T01:51:24.638Z,95398.28
2023-01-05T01:53:53.321Z,95389.94
2023-01-05T01:56:21.326Z,95378.84
2023-01-05T01:58:48.455Z,95373.66
2023-01-05T02:01:15.247Z,95361.50
2023-01-05T02:03:42.083Z,95374.69
2023-01-05T02:06:08.944Z,95367.84
2023-01-05T02:08:35.542Z,95353.97
2023-01-05T02:11:22.902Z,95356.63
2023-01-05T02:14:01.416Z,95345.50
2023-01-05T02:16:43.478Z,95332.53
2023-01-05T02:19:13.386Z,95340.03
2023-01-05T02:21:42.893Z,95335.41
2023-01-05T02:24:09.317Z,95328.31
2023-01-05T02:26:35.746Z,95316.75
2023-01-05T02:29:08.037Z,95323.25
2023-01-05T02:31:43.754Z,95328.53
2023-01-05T02:34:30.462Z,95308.88
2023-01-05T02:37:04.193Z,95287.81
2023-01-05T02:39:30.599Z,95295.69
2023-01-05T02:42:05.484Z,95289.22
2023-01-05T02:44:33.200Z,95290.41
2023-01-05T02:47:25.972Z,95292.44
2023-01-05T02:49:54.012Z,95292.66
2023-01-05T02:52:21.381Z,95292.66
2023-01-05T02:54:55.042Z,95286.00
2023-01-05T02:57:47.089Z,95290.41
2023-01-05T03:00:17.102Z,95267.72
2023-01-05T03:02:45.583Z,95276.44
2023-01-05T03:05:16.423Z,95329.22
2023-01-05T03:07:43.689Z,95265.50
2023-01-05T03:10:29.974Z,95292.66
2023-01-05T03:13:16.313Z,95261.50
2023-01-05T03:15:44.063Z,95240.25
2023-01-05T03:18:12.086Z,95251.19
2023-01-05T03:20:40.311Z,95244.31
2023-01-05T03:23:28.392Z,95240.69
2023-01-05T03:26:13.837Z,95228.72
2023-01-05T03:29:10.844Z,95211.72
2023-01-05T03:32:06.921Z,95204.25
2023-01-05T03:35:04.199Z,95204.25
2023-01-05T03:37:33.173Z,95221.25
2023-01-05T03:40:00.317Z,95213.34
2023-01-05T03:42:29.073Z,95205.06
2023-01-05T03:44:55.610Z,95196.13
2023-01-05T03:47:23.179Z,95190.84
2023-01-05T03:49:51.003Z,95195.13
2023-01-05T03:52:17.554Z,95181.16
2023-01-05T03:54:44.025Z,95204.22
2023-01-05T03:57:10.527Z,95207.28
2023-01-05T03:59:36.982Z,95206.88
2023-01-05T04:02:04.839Z,95213.16
2023-01-05T04:04:31.379Z,95208.50
2023-01-05T04:06:57.800Z,95208.50
2023-01-05T04:09:24.457Z,95203.81
2023-01-05T04:11:50.923Z,95202.00
2023-01-05T04:14:17.349Z,95208.28
2023-01-05T04:16:43.789Z,95183.34
2023-01-05T04:19:10.512Z,95183.53
2023-01-05T04:21:37.173Z,95167.31
2023-01-05T04:24:03.771Z,95195.72
2023-01-05T04:26:30.199Z,95190.22
2023-01-05T04:28:56.650Z,95192.25
2023-01-05T04:31:23.126Z,95176.69
2023-01-05T04:33:49.676Z,95190.06
2023-01-05T04:36:16.196Z,95180.75
2023-01-05T04:38:42.644Z,95173.84
2023-01-05T04:41:09.124Z,95166.34
2023-01-05T04:43:35.620Z,95175.06
2023-01-05T04:46:02.116Z,95183.16
2023-01-05T04:48:28.625Z,95149.34
2023-01-05T04:50:55.943Z,95162.50
2023-01-05T04:53:23.413Z,95153.97
2023-01-05T04:55:50.596Z,95144.66
2023-01-05T04:58:17.191Z,95148.88
2023-01-05T05:00:43.640Z,95151.50
2023-01-05T05:03:10.172Z,95146.41
2023-01-05T05:05:36.694Z,95147.59
2023-01-05T05:08:03.132Z,95141.81
2023-01-05T05:10:29.684Z,95138.31
2023-01-05T05:12:56.126Z,95143.13
2023-01-05T05:15:22.606Z,95121.22
2023-01-05T05:17:49.028Z,95125.63
2023-01-05T05:20:15.530Z,95119.91
2023-01-05T05:22:42.016Z,95135.31
2023-01-05T05:25:08.753Z,95132.19
2023-01-05T05:27:35.243Z,95110.41
2023-01-05T05:30:01.748Z,95113.59
2023-01-05T05:32:28.210Z,95121.53
2023-01-05T05:34:54.636Z,95128.00
2023-01-05T05:37:21.087Z,95125.09
2023-01-05T05:39:47.543Z,95138.47
2023-01-05T05:42:14.037Z,95131.72
2023-01-05T05:44:40.565Z,95133.78
2023-01-05T05:47:07.182Z,95123.81
2023-01-05T05:49:33.694Z,95125.22
2023-01-05T05:52:00.121Z,95123.97
2023-01-05T05:54:26.743Z,95121.50
2023-01-05T05:56:53.199Z,95116.03
2023-01-05T05:59:19.682Z,95127.34
2023-01-05T06:01:46.234Z,95121.00
2023-01-05T06:04:12.763Z,95114.00
2023-01-05T06:06:39.875Z,95127.81
2023-01-05T06:09:06.411Z,95131.44
2023-01-05T06:11:33.022Z,95129.16
2023-01-05T06:13:59.558Z,95129.75
2023-01-05T06:16:26.110Z,95121.00
2023-01-05T06:18:52.574Z,95107.81
2023-01-05T06:21:21.395Z,95106.97
2023-01-05T06:23:48.269Z,95108.84
2023-01-05T06:26:14.776Z,95115.72
2023-01-05T06:28:41.218Z,95121.97
2023-01-05T06:31:07.858Z,95123.66
2023-01-05T06:33:34.407Z,95113.09
2023-01-05T06:36:00.899Z,95118.97
2023-01-05T06:38:27.411Z,95115.66
2023-01-05T06:40:54.707Z,95115.44
2023-01-05T06:43:21.595Z,95110.53
2023-01-05T06:45:48.174Z,95101.59
2023-01-05T06:48:14.663Z,95091.94
2023-01-05T06:50:41.136Z,95094.81
2023-01-05T06:53:07.928Z,95100.31
2023-01-05T06:55:34.431Z,95106.88
2023-01-05T06:58:01.628Z,95091.81
2023-01-05T07:00:28.629Z,95104.41
2023-01-05T07:02:55.142Z,95105.25
2023-01-05T07:05:23.305Z,95119.63
2023-01-05T07:07:50.071Z,95111.50
2023-01-05T07:10:16.563Z,95108.41
2023-01-05T07:12:43.030Z,95111.25
2023-01-05T07:15:09.797Z,95124.25
2023-01-05T07:17:36.726Z,95115.72
2023-01-05T07:20:04.056Z,95110.03
2023-01-05T07:22:31.042Z,95124.25
2023-01-05T07:24:58.883Z,95124.69
2023-01-05T07:27:25.695Z,95121.63
2023-01-05T07:29:52.126Z,95115.72
2023-01-05T07:32:18.854Z,95115.31
2023-01-05T07:34:54.953Z,95116.94
2023-01-05T07:37:23.331Z,95097.59
2023-01-05T07:39:49.759Z,95107.94
2023-01-05T07:42:16.240Z,95101.06
2023-01-05T07:44:42.735Z,95117.38
2023-01-05T07:47:09.313Z,95096.81
2023-01-05T07:49:35.744Z,95091.88
2023-01-05T07:52:02.396Z,95089.03
2023-01-05T07:54:28.856Z,95081.09
2023-01-05T07:56:55.731Z,95085.13
2023-01-05T07:59:22.199Z,95083.91
2023-01-05T08:01:48.847Z,95076.75
2023-01-05T08:04:15.463Z,95085.50
2023-01-05T08:06:41.935Z,95089.19
2023-01-05T08:09:26.741Z,95092.84
2023-01-05T08:11:53.160Z,95089.56
2023-01-05T08:14:19.625Z,95092.38
2023-01-05T08:16:46.138Z,95098.94
2023-01-05T08:19:12.733Z,95096.66
2023-01-05T08:21:39.241Z,95109.28
2023-01-05T08:24:06.212Z,95094.88
2023-01-05T08:26:32.761Z,95113.59
2023-01-05T08:28:59.423Z,95105.31
2023-01-05T08:31:27.396Z,95101.44
2023-01-05T08:33:57.929Z,95088.88
2023-01-05T08:36:24.528Z,95103.72
2023-01-05T08:38:52.165Z,95096.38
2023-01-05T08:41:19.678Z,95089.44
2023-01-05T08:43:50.600Z,95095.34
2023-01-05T08:46:17.499Z,95101.88
2023-01-05T08:48:44.066Z,95090.63
2023-01-05T08:51:10.543Z,95095.34
2023-01-05T08:53:37.029Z,95094.03
2023-01-05T08:56:03.610Z,95094.03
2023-01-05T08:58:30.161Z,95092.75
2023-01-05T09:00:56.775Z,95094.16
2023-01-05T09:03:23.317Z,95094.16
2023-01-05T09:05:52.692Z,95117.97
2023-01-05T09:08:19.140Z,95112.44
2023-01-05T09:10:45.664Z,95133.22
2023-01-05T09:13:12.125Z,95138.81
2023-01-05T09:15:38.693Z,95161.19
2023-01-05T09:18:05.251Z,95209.72
2023-01-05T09:20:36.191Z,95224.00
2023-01-05T09:23:06.147Z,95224.00
2023-01-05T09:25:32.606Z,95219.38
2023-01-05T09:27:59.078Z,95215.25
2023-01-05T09:30:25.639Z,95217.09
2023-01-05T09:32:52.143Z,95223.63
2023-01-05T09:35:18.575Z,95213.06
2023-01-05T09:37:45.105Z,95225.22
2023-01-05T09:40:12.802Z,95224.78
2023-01-05T09:42:41.217Z,95230.47
2023-01-05T09:45:07.928Z,95229.63
2023-01-05T09:47:42.213Z,95237.28
2023-01-05T09:50:17.066Z,95233.22
2023-01-05T09:52:43.514Z,95229.78
2023-01-05T09:55:13.028Z,95225.16
2023-01-05T09:57:40.265Z,95232.72
2023-01-05T10:00:08.391Z,95221.81
2023-01-05T10:02:43.500Z,95222.00
2023-01-05T10:05:11.934Z,95208.63
2023-01-05T10:07:47.843Z,95199.72
2023-01-05T10:10:24.788Z,95185.75
2023-01-05T10:13:04.499Z,95157.16
2023-01-05T10:15:34.217Z,95155.50
2023-01-05T10:18:02.738Z,95179.44
2023-01-05T10:20:40.354Z,95181.28
2023-01-05T10:23:14.867Z,95177.84
2023-01-05T10:25:46.187Z,95186.38
2023-01-05T10:28:15.673Z,95172.59
2023-01-05T10:30:57.355Z,95169.75
2023-01-05T10:33:35.648Z,95162.47
2023-01-05T10:36:48.797Z,95165.47
2023-01-05T10:39:11.729Z,95156.78
2023-01-05T10:41:38.231Z,95149.66
2023-01-05T10:44:13.702Z,95148.84
2023-01-05T10:46:52.143Z,95146.41
2023-01-05T10:49:26.669Z,95155.50
2023-01-05T10:51:56.685Z,95149.44
2023-01-05T10:54:29.597Z,95154.88
2023-01-05T10:56:56.087Z,95148.19
2023-01-05T10:59:22.581Z,95145.16
2023-01-05T11:01:49.841Z,95149.63
2023-01-05T11:04:33.977Z,95140.13
2023-01-05T11:07:05.527Z,95151.28
2023-01-05T11:09:32.264Z,95146.22
2023-01-05T11:12:00.044Z,95152.31
2023-01-05T11:14:27.833Z,95141.38
2023-01-05T11:16:55.988Z,95148.25
2023-01-05T11:19:26.255Z,95141.19
2023-01-05T11:21:58.133Z,95132.88
2023-01-05T11:24:30.263Z,95142.81
2023-01-05T11:27:01.687Z,95132.06
2023-01-05T11:29:28.719Z,95134.91
2023-01-05T11:31:57.832Z,95132.06
2023-01-05T11:34:30.232Z,95132.25
2023-01-05T11:37:02.592Z,95129.63
2023-01-05T11:39:36.821Z,95127.19
2023-01-05T11:42:25.345Z,95122.31
2023-01-05T11:44:52.673Z,95119.47
2023-01-05T11:47:43.917Z,95116.63
2023-01-05T11:50:13.908Z,95117.03
2023-01-05T11:52:45.480Z,95119.28
2023-01-05T11:55:24.123Z,95132.63
2023-01-05T11:57:59.984Z,95128.78
2023-01-05T12:00:42.303Z,95142.78
2023-01-05T12:03:29.092Z,95112.16
2023-01-05T12:05:57.246Z,95124.09
2023-01-05T12:08:28.134Z,95124.28
2023-01-05T12:11:07.669Z,95125.88
2023-01-05T12:14:09.651Z,95120.63
2023-01-05T12:16:36.175Z,95120.78
2023-01-05T12:19:11.562Z,95120.19
2023-01-05T12:21:39.862Z,95128.31
2023-01-05T12:24:06.376Z,95118.59
2023-01-05T12:26:42.009Z,95129.34
2023-01-05T12:31:02.846Z,95123.44
2023-01-05T12:35:17.084Z,95124.47
2023-01-05T12:37:43.512Z,95122.63
2023-01-05T12:40:22.287Z,95124.25
2023-01-05T12:42:56.965Z,95121.78
2023-01-05T12:45:40.450Z,95118.56
2023-01-05T12:48:24.015Z,95124.63
2023-01-05T12:51:02.956Z,95117.09
2023-01-05T12:53:35.563Z,95108.75
2023-01-05T12:56:07.865Z,95114.84
2023-01-05T12:58:39.557Z,95123.75
2023-01-05T13:01:09.142Z,95116.06
2023-01-05T13:03:48.170Z,95116.28
2023-01-05T13:06:22.805Z,95115.63
2023-01-05T13:09:15.248Z,95107.94
2023-01-05T13:11:44.069Z,95129.41
2023-01-05T13:14:13.568Z,95119.47
2023-01-05T13:16:41.866Z,95128.59
2023-01-05T13:19:27.210Z,95122.13
2023-01-05T13:21:54.663Z,95129.16
2023-01-05T13:24:27.981Z,95119.41
2023-01-05T13:26:54.945Z,95121.03
2023-01-05T13:29:26.287Z,95112.53
2023-01-05T13:31:52.742Z,95110.28
2023-01-05T13:34:31.404Z,95115.13
2023-01-05T13:37:07.208Z,95110.00
2023-01-05T13:39:49.021Z,95104.53
2023-01-05T13:42:15.438Z,95102.50
2023-01-05T13:45:01.909Z,95101.44
2023-01-05T13:47:45.873Z,95095.19
2023-01-05T13:50:31.597Z,95099.03
2023-01-05T13:53:03.381Z,95103.69
2023-01-05T13:55:31.287Z,95095.56
2023-01-05T13:57:58.807Z,95097.59
2023-01-05T14:00:36.139Z,95093.72
2023-01-05T14:03:08.052Z,95098.41
2023-01-05T14:05:41.004Z,95098.41
2023-01-05T14:08:17.518Z,95093.97
2023-01-05T14:11:03.887Z,95095.59
2023-01-05T14:13:42.628Z,95099.63
2023-01-05T14:16:27.853Z,95101.06
2023-01-05T14:19:02.178Z,95094.19
2023-01-05T14:21:47.301Z,95091.75
2023-01-05T14:24:29.136Z,95089.50
2023-01-05T14:27:00.548Z,95100.88
2023-01-05T14:29:47.233Z,95100.06
2023-01-05T14:32:15.210Z,95098.44
2023-01-05T14:34:48.735Z,95106.34
2023-01-05T14:37:32.876Z,95110.44
2023-01-05T14:40:04.290Z,95102.16
2023-01-05T14:42:39.648Z,95104.78
2023-01-05T14:45:07.791Z,95098.31
2023-01-05T14:47:34.283Z,95106.59
2023-01-05T14:50:03.995Z,95113.91
2023-01-05T14:52:49.283Z,95094.63
2023-01-05T14:55:37.086Z,95105.00
2023-01-05T14:58:11.531Z,95108.47
2023-01-05T15:03:25.280Z,95118.22
2023-01-05T15:05:57.875Z,95125.53
2023-01-05T15:08:35.298Z,95145.00
2023-01-05T15:11:19.801Z,95160.03
2023-01-05T15:14:06.162Z,95167.13
2023-01-05T15:16:35.467Z,95157.41
2023-01-05T15:19:20.607Z,95145.38
2023-01-05T15:21:59.650Z,95147.63
2023-01-05T15:24:44.876Z,95137.47
2023-01-05T15:27:11.313Z,95140.97
2023-01-05T15:29:46.392Z,95131.44
2023-01-05T15:32:20.299Z,95140.59
2023-01-05T15:34:56.249Z,95141.59
2023-01-05T15:37:31.996Z,95148.69
2023-01-05T15:40:03.918Z,95153.38
2023-01-05T15:42:44.036Z,95146.09
2023-01-05T15:45:43.212Z,95162.31
2023-01-05T15:48:20.639Z,95182.56
2023-01-05T15:50:49.109Z,95184.38
2023-01-05T15:53:27.979Z,95183.78
2023-01-05T15:55:54.901Z,95182.97
2023-01-05T15:58:22.436Z,95175.25
2023-01-05T16:01:02.483Z,95175.66
2023-01-05T16:03:30.799Z,95162.09
2023-01-05T16:05:59.315Z,95169.81
2023-01-05T16:08:26.118Z,95151.75
2023-01-05T16:10:55.983Z,95171.00
2023-01-05T16:13:45.874Z,95198.59
2023-01-05T16:16:43.217Z,95205.69
2023-01-05T16:19:07.195Z,95199.25
2023-01-05T16:21:46.282Z,95211.66
2023-01-05T16:24:22.402Z,95210.06
2023-01-05T16:26:48.956Z,95218.56
2023-01-05T16:29:21.250Z,95202.75
2023-01-05T16:31:55.035Z,95202.97
2023-01-05T16:34:25.829Z,95197.09
2023-01-05T16:37:02.708Z,95184.72
2023-01-05T16:39:34.879Z,95179.25
2023-01-05T16:42:35.436Z,95167.13
2023-01-05T16:45:02.040Z,95166.94
2023-01-05T16:47:38.481Z,95170.97
2023-01-05T16:50:24.992Z,95179.88
2023-01-05T16:52:53.007Z,95183.91
2023-01-05T16:55:32.957Z,95182.94
2023-01-05T16:57:59.992Z,95181.09
2023-01-05T17:00:26.820Z,95195.06
2023-01-05T17:02:54.338Z,95194.06
2023-01-05T17:05:28.158Z,95193.47
2023-01-05T17:08:03.886Z,95190.84
2023-01-05T17:10:30.781Z,95196.13
2023-01-05T17:13:03.435Z,95167.75
2023-01-05T17:15:32.295Z,95182.97
2023-01-05T17:17:58.981Z,95187.59
2023-01-05T17:20:27.371Z,95182.16
2023-01-05T17:22:54.748Z,95188.41
2023-01-05T17:25:21.566Z,95189.63
2023-01-05T17:27:48.007Z,95185.75
2023-01-05T17:30:23.653Z,95198.28
2023-01-05T17:32:50.193Z,95185.50
2023-01-05T17:35:18.768Z,95206.38
2023-01-05T17:37:46.543Z,95186.69
2023-01-05T17:40:16.883Z,95213.25
2023-01-05T17:42:43.500Z,95212.22
2023-01-05T17:45:28.447Z,95209.75
2023-01-05T17:47:55.177Z,95211.41
2023-01-05T17:53:02.915Z,95195.34
2023-01-05T17:55:30.268Z,95199.00
2023-01-05T17:57:57.779Z,95192.50
2023-01-05T18:00:25.484Z,95190.66
2023-01-05T18:02:52.653Z,95208.53
2023-01-05T18:05:19.390Z,95210.16
2023-01-05T18:07:45.843Z,95195.13
2023-01-05T18:10:17.463Z,95202.44
2023-01-05T18:12:44.026Z,95210.34
2023-01-05T18:15:10.955Z,95218.47
2023-01-05T18:17:37.799Z,95218.69
2023-01-05T18:20:04.910Z,95214.66
2023-01-05T18:25:03.171Z,95220.31
2023-01-05T18:27:29.651Z,95214.22
2023-01-05T18:29:56.751Z,95222.75
2023-01-05T18:32:23.827Z,95232.50
2023-01-05T18:34:50.246Z,95252.38
2023-01-05T18:37:23.642Z,95262.72
2023-01-05T18:39:50.059Z,95247.50
2023-01-05T18:42:16.582Z,95271.84
2023-01-05T18:44:43.042Z,95282.00
2023-01-05T18:47:09.500Z,95299.44
2023-01-05T18:49:35.980Z,95308.78
2023-01-05T18:52:03.187Z,95329.63
2023-01-05T18:54:29.927Z,95332.47
2023-01-05T18:56:56.470Z,95355.00
2023-01-05T18:59:22.995Z,95358.41
2023-01-05T19:01:49.443Z,95362.66
2023-01-05T19:04:16.527Z,95362.66
2023-01-05T19:06:43.177Z,95357.38
2023-01-05T19:09:10.696Z,95351.31
2023-01-05T19:11:37.876Z,95368.31
2023-01-05T19:14:05.281Z,95350.47
2023-01-05T19:16:33.591Z,95370.75
2023-01-05T19:19:05.430Z,95369.31
2023-01-05T19:21:33.125Z,95380.44
2023-01-05T19:24:00.146Z,95354.13
2023-01-05T19:26:28.548Z,95385.72
2023-01-05T19:28:55.157Z,95383.91
2023-01-05T19:31:24.608Z,95382.25
2023-01-05T19:33:51.246Z,95378.81
2023-01-05T19:36:18.642Z,95384.69
2023-01-05T19:38:45.846Z,95409.63
2023-01-05T19:41:12.648Z,95398.25
2023-01-05T19:43:42.384Z,95412.03
2023-01-05T19:46:12.967Z,95391.16
2023-01-05T19:48:39.845Z,95381.00
2023-01-05T19:51:11.647Z,95405.91
2023-01-05T19:53:39.100Z,95383.22
2023-01-05T19:56:05.719Z,95382.00
2023-01-05T19:58:32.513Z,95409.13
2023-01-05T20:01:04.760Z,95403.88
2023-01-05T20:03:31.199Z,95414.78
2023-01-05T20:06:08.727Z,95432.44
2023-01-05T20:08:35.818Z,95406.91
2023-01-05T20:11:09.851Z,95417.03
2023-01-05T20:13:36.419Z,95412.56
2023-01-05T20:16:07.357Z,95419.84
2023-01-05T20:18:33.912Z,95420.47
2023-01-05T20:21:01.014Z,95447.19
2023-01-05T20:23:36.808Z,95434.00
2023-01-05T20:26:11.689Z,95446.75
2023-01-05T20:28:38.216Z,95454.44
2023-01-05T20:31:05.490Z,95446.78
2023-01-05T20:33:32.140Z,95448.38
2023-01-05T20:35:58.608Z,95457.09
2023-01-05T20:38:25.310Z,95440.72
2023-01-05T20:40:51.769Z,95446.59
2023-01-05T20:43:18.266Z,95461.41
2023-01-05T20:45:44.789Z,95456.75
2023-01-05T20:48:11.372Z,95438.72
2023-01-05T20:50:37.932Z,95448.47
2023-01-05T20:53:04.388Z,95451.53
2023-01-05T20:55:30.939Z,95460.81
2023-01-05T20:57:57.389Z,95453.34
2023-01-05T21:00:25.271Z,95474.41
2023-01-05T21:02:52.731Z,95489.16
2023-01-05T21:05:19.419Z,95484.53
2023-01-05T21:07:46.733Z,95472.38
2023-01-05T21:10:13.319Z,95483.34
2023-01-05T21:12:39.804Z,95511.09
2023-01-05T21:15:06.588Z,95486.97
2023-01-05T21:17:33.704Z,95500.34
2023-01-05T21:20:00.201Z,95492.44
2023-01-05T21:22:27.344Z,95508.06
2023-01-05T21:24:53.820Z,95498.75
2023-01-05T21:27:20.286Z,95491.47
2023-01-05T21:29:46.734Z,95515.34
2023-01-05T21:32:13.215Z,95508.66
2023-01-05T21:34:39.667Z,95524.25
2023-01-05T21:37:06.141Z,95526.47
2023-01-05T21:39:32.679Z,95500.72
2023-01-05T21:42:17.536Z,95535.97
2023-01-05T21:44:44.071Z,95517.53
2023-01-05T21:47:10.626Z,95543.25
2023-01-05T21:49:37.060Z,95520.34
2023-01-05T21:52:22.840Z,95528.25
2023-01-05T21:55:07.761Z,95547.25
2023-01-05T21:57:34.267Z,95543.63
2023-01-05T22:00:00.731Z,95553.53
2023-01-05T22:02:27.205Z,95552.09
2023-01-05T22:04:53.937Z,95559.34
2023-01-05T22:07:20.442Z,95560.34
2023-01-05T22:09:46.951Z,95566.38
2023-01-05T22:12:13.433Z,95586.81
2023-01-05T22:14:39.931Z,95571.59
2023-01-05T22:17:07.855Z,95583.91
2023-01-05T22:19:34.372Z,95591.81
2023-01-05T22:22:00.860Z,95580.25
2023-01-05T22:24:27.291Z,95572.75
2023-01-05T22:26:53.863Z,95582.88
2023-01-05T22:29:20.443Z,95572.16
2023-01-05T22:31:47.129Z,95589.72
2023-01-05T22:34:13.661Z,95599.19
2023-01-05T22:36:40.256Z,95620.59
2023-01-05T22:39:06.787Z,95603.06
2023-01-05T22:41:33.273Z,95614.63
2023-01-05T22:44:02.384Z,95628.56
2023-01-05T22:46:29.515Z,95624.41
2023-01-05T22:48:56.563Z,95622.72
2023-01-05T22:51:26.057Z,95624.19
2023-01-05T22:53:52.744Z,95630.66
2023-01-05T22:56:20.116Z,95641.09
2023-01-05T22:58:46.607Z,95647.91
2023-01-05T23:01:14.504Z,95659.53
2023-01-05T23:03:41.523Z,95652.19
2023-01-05T23:06:08.218Z,95655.91
2023-01-05T23:08:35.823Z,95673.75
2023-01-05T23:11:03.727Z,95674.94
2023-01-05T23:13:30.204Z,95672.50
2023-01-05T23:15:56.976Z,95674.06
2023-01-05T23:18:23.907Z,95673.16
2023-01-05T23:20:57.588Z,95682.00
2023-01-05T23:23:24.716Z,95678.97
2023-01-05T23:25:51.821Z,95680.66
2023-01-05T23:28:18.839Z,95690.25
2023-01-05T23:30:46.144Z,95689.88
2023-01-05T23:33:13.100Z,95698.78
2023-01-05T23:35:39.737Z,95688.09
2023-01-05T23:38:06.280Z,95695.44
2023-01-05T23:40:32.740Z,95705.06
2023-01-05T23:42:59.240Z,95704.97
2023-01-05T23:45:25.689Z,95704.03
2023-01-05T23:47:52.143Z,95720.06
2023-01-05T23:50:18.566Z,95718.09
2023-01-05T23:52:45.026Z,95719.25
2023-01-05T23:55:11.469Z,95728.59
2023-01-05T23:57:37.932Z,95729.59
